Queen Of Nanaimo — VCNX — position and weather

sailwx.info

Track history (hours):
 
Tides and Currents Weather Stations Pressure Air Temp Water Temp Dewpoint Dewpoint Depression Visibility Wind Speed Wind Dir Waves Ship Positions

Queen Of Nanaimo

Last reported at 2014-Jul-29 08:05 UTC. Time now 2014-Jul-29 08:43 UTC.
Position N 48°51' W 123°27'.

Length 130 m; draft 4 m.

Type: Ship. MMSI: 316001254.

Date/timePositionNaut miles runAvg speedWind from/ knotsBaromVisibWave heightAir tempDewpointWater temp
2014-Jul-29 08:05N 48°51' W 123°27'0 0.0
2014-Jul-29 07:16N 48°51' W 123°27'0 0.0
2014-Jul-29 06:18N 48°51' W 123°27'1 1.5
2014-Jul-29 05:32N 48°50' W 123°25'4 3.6
2014-Jul-29 04:33N 48°51' W 123°20'2 2.0
2014-Jul-29 03:34N 48°53' W 123°19'1110.7
2014-Jul-29 02:33N 49°00' W 123°08'2 2.4
2014-Jul-29 01:34N 48°58' W 123°09'8 8.3
2014-Jul-29 00:34N 48°53' W 123°19'5 4.6
2014-Jul-28 23:33N 48°48' W 123°19'2 0.6
2014-Jul-28 20:26N 48°48' W 123°22'3 2.8
2014-Jul-28 19:26N 48°51' W 123°20'3 3.6
2014-Jul-28 18:33N 48°53' W 123°18'9 9.5
2014-Jul-28 17:34N 49°00' W 123°08'0 0.1
2014-Jul-28 16:33N 49°00' W 123°08'1110.6
2014-Jul-28 15:33N 48°53' W 123°19'2 1.9
2014-Jul-28 14:32N 48°51' W 123°20'3 3.5
2014-Jul-28 13:33N 48°50' W 123°25'2 2.1
2014-Jul-28 12:31N 48°51' W 123°27'0 0.0
2014-Jul-28 11:25N 48°51' W 123°27'0 0.0
2014-Jul-28 10:31N 48°51' W 123°27'0 0.0
2014-Jul-28 09:26N 48°51' W 123°27'0 0.0
2014-Jul-28 07:12N 48°51' W 123°27'6 8.6
2014-Jul-28 06:34N 48°52' W 123°18'1111.0
2014-Jul-28 05:33N 49°00' W 123°08'9 9.5
2014-Jul-28 04:33N 48°53' W 123°17'3 2.9
2014-Jul-28 03:33N 48°51' W 123°20'9 8.9
2014-Jul-28 02:33N 48°58' W 123°12'4 3.6
2014-Jul-28 01:33N 49°00' W 123°08'1110.7
2014-Jul-28 00:34N 48°53' W 123°19'5 3.8
2014-Jul-27 23:09N 48°51' W 123°27'4 6.5
2014-Jul-27 22:30N 48°52' W 123°20'1212.7
2014-Jul-27 21:33N 49°00' W 123°08'5 4.6
2014-Jul-27 20:33N 48°57' W 123°12'7 7.0
2014-Jul-27 19:34N 48°51' W 123°19'1 0.8
2014-Jul-27 18:26N 48°51' W 123°20'4 5.0
2014-Jul-27 17:34N 48°54' W 123°16'8 8.2
2014-Jul-27 16:34N 49°00' W 123°08'10 9.6
2014-Jul-27 15:33N 48°53' W 123°17'6 6.4
2014-Jul-27 14:33N 48°51' W 123°27'0 0.0
2014-Jul-27 11:10N 48°51' W 123°27'0 0.0
2014-Jul-27 08:23N 48°51' W 123°27'0 0.0
2014-Jul-27 07:22N 48°51' W 123°27'2 0.9
2014-Jul-27 05:33N 48°51' W 123°24'1414.0
2014-Jul-27 04:33N 49°00' W 123°08'0 0.3
2014-Jul-27 03:33N 49°00' W 123°08'0 0.0
2014-Jul-27 02:33N 49°00' W 123°08'0 0.0
2014-Jul-27 01:33N 49°00' W 123°08'1212.2
2014-Jul-27 00:33N 48°52' W 123°21'3 0.9
2014-Jul-26 21:15N 48°50' W 123°25'811.7
2014-Jul-26 20:33N 48°55' W 123°15'7 7.0
2014-Jul-26 19:33N 49°00' W 123°08'7 7.1
2014-Jul-26 18:33N 48°55' W 123°14'5 5.1
2014-Jul-26 17:30N 48°51' W 123°20'2 2.4
2014-Jul-26 16:34N 48°53' W 123°18'1010.2
2014-Jul-26 15:33N 49°00' W 123°08'3 2.8
2014-Jul-26 14:33N 48°58' W 123°10'1312.5
2014-Jul-26 13:33N 48°50' W 123°25'1 0.6
2014-Jul-26 11:05N 48°51' W 123°27'0 0.0
2014-Jul-26 10:30N 48°51' W 123°27'0 0.0
2014-Jul-26 09:04N 48°51' W 123°27'0 0.0
2014-Jul-26 06:13N 48°51' W 123°27'2 3.1
2014-Jul-26 05:34N 48°50' W 123°25'4 3.5
2014-Jul-26 04:33N 48°51' W 123°20'1211.8
2014-Jul-26 03:34N 48°60' W 123°08'2 1.9
2014-Jul-26 02:33N 48°58' W 123°10'10 9.4
2014-Jul-26 01:31N 48°51' W 123°20'2 2.0
2014-Jul-26 00:34N 48°53' W 123°19'1110.6
2014-Jul-25 23:34N 49°00' W 123°08'0 0.0
2014-Jul-25 22:34N 49°00' W 123°08'1313.2
2014-Jul-25 21:33N 48°51' W 123°23'2 2.0
2014-Jul-25 20:32N 48°50' W 123°25'4 3.2
2014-Jul-25 19:19N 48°51' W 123°20'2 2.5
2014-Jul-25 18:33N 48°53' W 123°19'1110.7
2014-Jul-25 17:33N 49°00' W 123°08'0 0.0
2014-Jul-25 16:33N 49°00' W 123°08'1110.7
2014-Jul-25 15:33N 48°53' W 123°19'2 1.9
2014-Jul-25 14:33N 48°51' W 123°20'3 3.4
2014-Jul-25 13:33N 48°49' W 123°25'2 2.2
2014-Jul-25 12:32N 48°51' W 123°27'0 0.0
2014-Jul-25 11:11N 48°51' W 123°27'0 0.0
2014-Jul-25 09:27N 48°51' W 123°27'0 0.0
2014-Jul-25 08:32N 48°51' W 123°27'0 0.0
2014-Jul-25 07:33N 48°51' W 123°27'1 0.6
2014-Jul-25 05:29N 48°50' W 123°25'3 3.7
2014-Jul-25 04:33N 48°51' W 123°20'2 2.0
2014-Jul-25 03:33N 48°53' W 123°19'1110.7
2014-Jul-25 02:33N 49°00' W 123°08'1 1.4
2014-Jul-25 01:34N 48°59' W 123°09'9 9.3
2014-Jul-25 00:33N 48°53' W 123°19'3 3.0
2014-Jul-24 23:33N 48°50' W 123°20'4 4.1
2014-Jul-24 22:28N 48°51' W 123°27'0 0.1
2014-Jul-24 21:31N 48°51' W 123°27'1 1.2
2014-Jul-24 20:32N 48°50' W 123°25'4 2.8
2014-Jul-24 19:15N 48°51' W 123°20'2 2.8
2014-Jul-24 18:33N 48°53' W 123°19'1110.7
2014-Jul-24 17:33N 49°00' W 123°08'0 0.0
2014-Jul-24 16:33N 49°00' W 123°08'1110.7
2014-Jul-24 15:33N 48°53' W 123°19'2 2.2
2014-Jul-24 14:33N 48°51' W 123°20'3 3.1
2014-Jul-24 13:33N 48°50' W 123°25'2 2.0
2014-Jul-24 12:33N 48°51' W 123°27'0 0.0
2014-Jul-24 11:27N 48°51' W 123°27'0 0.0
2014-Jul-24 10:33N 48°51' W 123°27'0 0.0
2014-Jul-24 09:24N 48°51' W 123°27'0 0.0
2014-Jul-24 08:25N 48°51' W 123°27'0 0.0
2014-Jul-24 07:33N 48°51' W 123°27'1 0.4
2014-Jul-24 05:29N 48°51' W 123°26'4 3.9
2014-Jul-24 04:33N 48°51' W 123°20'3 3.0
2014-Jul-24 03:33N 48°53' W 123°18'10 9.7
2014-Jul-24 02:33N 49°00' W 123°08'1 0.7
2014-Jul-24 01:33N 48°60' W 123°08'10 9.9
2014-Jul-24 00:34N 48°53' W 123°18'4 4.2
2014-Jul-23 23:33N 48°48' W 123°20'4 1.3
2014-Jul-23 20:21N 48°51' W 123°26'4 5.1
2014-Jul-23 19:33N 48°49' W 123°20'4 4.0
2014-Jul-23 18:33N 48°53' W 123°19'1110.5
2014-Jul-23 17:33N 49°00' W 123°08'0 0.2
2014-Jul-23 16:33N 49°00' W 123°08'1110.7
2014-Jul-23 15:33N 48°53' W 123°19'2 1.9
2014-Jul-23 14:31N 48°51' W 123°20'3 3.4
2014-Jul-23 13:33N 48°49' W 123°24'3 2.9
2014-Jul-23 12:33N 48°51' W 123°27'0 0.0
2014-Jul-23 11:16N 48°51' W 123°27'0 0.0
2014-Jul-23 08:31N 48°51' W 123°27'0 0.0
2014-Jul-23 07:26N 48°51' W 123°27'1 0.5
2014-Jul-23 05:28N 48°51' W 123°26'4 3.9
2014-Jul-23 04:32N 48°51' W 123°20'2 2.0
2014-Jul-23 03:34N 48°53' W 123°19'1110.7
2014-Jul-23 02:33N 49°00' W 123°08'0 0.4
2014-Jul-23 01:34N 49°00' W 123°08'1010.3
2014-Jul-23 00:33N 48°53' W 123°19'4 3.5
2014-Jul-22 23:32N 48°49' W 123°20'5 4.5
2014-Jul-22 22:29N 48°51' W 123°27'0 0.1
2014-Jul-22 21:06N 48°51' W 123°27'1 1.1
2014-Jul-22 20:24N 48°51' W 123°26'4 4.9
2014-Jul-22 19:34N 48°49' W 123°20'4 3.8
2014-Jul-22 18:34N 48°53' W 123°19'1010.0
2014-Jul-22 17:33N 48°60' W 123°09'1 0.6
2014-Jul-22 16:33N 49°00' W 123°08'1110.7
2014-Jul-22 15:33N 48°53' W 123°19'2 1.9
2014-Jul-22 14:32N 48°51' W 123°20'3 3.3
2014-Jul-22 13:33N 48°50' W 123°25'2 1.4
2014-Jul-22 12:09N 48°51' W 123°27'0 0.0
2014-Jul-22 06:17N 48°51' W 123°27'1 1.5
2014-Jul-22 05:33N 48°51' W 123°25'4 3.6
2014-Jul-22 04:32N 48°51' W 123°20'2 2.0
2014-Jul-22 03:33N 48°53' W 123°19'1110.6
2014-Jul-22 02:33N 49°00' W 123°08'5 4.6
2014-Jul-22 01:33N 48°57' W 123°12'7 6.8
2014-Jul-22 00:33N 48°52' W 123°19'5 1.3
2014-Jul-21 20:28N 48°51' W 123°27'1 8.0
2014-Jul-21 20:17N 48°50' W 123°25'3 4.7
2014-Jul-21 19:34N 48°49' W 123°20'4 3.6
2014-Jul-21 18:33N 48°53' W 123°19'1110.7
2014-Jul-21 17:33N 49°00' W 123°08'0 0.0
2014-Jul-21 16:33N 49°00' W 123°08'1110.7
2014-Jul-21 15:33N 48°53' W 123°19'2 2.0
2014-Jul-21 14:33N 48°51' W 123°20'3 3.4
2014-Jul-21 13:34N 48°50' W 123°25'2 0.4
2014-Jul-21 08:17N 48°51' W 123°27'0 0.0
2014-Jul-21 07:06N 48°51' W 123°27'510.1
2014-Jul-21 06:34N 48°52' W 123°19'1111.2
2014-Jul-21 05:33N 49°00' W 123°08'1010.1
2014-Jul-21 04:33N 48°53' W 123°18'2 2.4
2014-Jul-21 03:33N 48°51' W 123°20'7 7.2
2014-Jul-21 02:33N 48°57' W 123°14'5 5.4
2014-Jul-21 01:33N 49°00' W 123°08'1110.6
2014-Jul-21 00:33N 48°53' W 123°19'6 5.0
2014-Jul-20 23:27N 48°51' W 123°27'1 0.6
2014-Jul-20 22:26N 48°51' W 123°26'1214.0
2014-Jul-20 21:33N 48°58' W 123°11'3 3.1
2014-Jul-20 20:33N 49°00' W 123°08'1110.4
2014-Jul-20 19:32N 48°53' W 123°19'2 2.0
2014-Jul-20 18:33N 48°51' W 123°20'3 2.7
2014-Jul-20 17:33N 48°53' W 123°18'10 9.9
2014-Jul-20 16:33N 49°00' W 123°08'7 6.7
2014-Jul-20 15:34N 48°55' W 123°14'7 7.4
2014-Jul-20 14:33N 48°51' W 123°23'2 1.5
2014-Jul-20 13:04N 48°51' W 123°27'0 0.0
2014-Jul-20 12:33N 48°51' W 123°27'0 0.0
2014-Jul-20 11:32N 48°51' W 123°27'0 0.0
2014-Jul-20 10:20N 48°51' W 123°27'0 0.0
2014-Jul-20 09:33N 48°51' W 123°27'0 0.0
2014-Jul-20 06:15N 48°51' W 123°27'3 3.9
2014-Jul-20 05:31N 48°51' W 123°22'1313.4
2014-Jul-20 04:33N 49°00' W 123°08'0 0.3
2014-Jul-20 03:33N 49°00' W 123°08'0 0.0
2014-Jul-20 02:33N 49°00' W 123°08'0 0.0
2014-Jul-20 01:33N 49°00' W 123°08'1110.8
2014-Jul-20 00:33N 48°52' W 123°18'3 0.8
2014-Jul-19 20:33N 48°51' W 123°23'1313.6
2014-Jul-19 19:33N 49°00' W 123°08'6 5.5
2014-Jul-19 18:33N 48°56' W 123°13'7 6.8
2014-Jul-19 17:33N 48°51' W 123°20'2 1.9
2014-Jul-19 16:33N 48°53' W 123°19'1110.7
2014-Jul-19 15:33N 49°00' W 123°08'2 1.7
2014-Jul-19 14:33N 48°59' W 123°09'1312.9
2014-Jul-19 13:33N 48°51' W 123°25'1 0.7
2014-Jul-19 11:30N 48°51' W 123°27'0 0.0
2014-Jul-19 10:33N 48°51' W 123°27'0 0.0
2014-Jul-19 09:27N 48°51' W 123°27'0 0.0
2014-Jul-19 08:23N 48°51' W 123°27'  
Track history (hours):
 
Tides and Currents Weather Stations Pressure Air Temp Water Temp Dewpoint Dewpoint Depression Visibility Wind Speed Wind Dir Waves Ship Positions

Queen Of Nanaimo

Last reported at 2014-Jul-29 08:05 UTC. Time now 2014-Jul-29 08:43 UTC.
Position N 48°51' W 123°27'.

Length 130 m; draft 4 m.

Type: Ship. MMSI: 316001254.

Date/timePositionNaut miles runAvg speedWind from/ knotsBaromVisibWave heightAir tempDewpointWater temp
2014-Jul-29 08:05N 48°51' W 123°27'0 0.0
2014-Jul-29 07:16N 48°51' W 123°27'0 0.0
2014-Jul-29 06:18N 48°51' W 123°27'1 1.5
2014-Jul-29 05:32N 48°50' W 123°25'4 3.6
2014-Jul-29 04:33N 48°51' W 123°20'2 2.0
2014-Jul-29 03:34N 48°53' W 123°19'1110.7
2014-Jul-29 02:33N 49°00' W 123°08'2 2.4
2014-Jul-29 01:34N 48°58' W 123°09'8 8.3
2014-Jul-29 00:34N 48°53' W 123°19'5 4.6
2014-Jul-28 23:33N 48°48' W 123°19'2 0.6
2014-Jul-28 20:26N 48°48' W 123°22'3 2.8
2014-Jul-28 19:26N 48°51' W 123°20'3 3.6
2014-Jul-28 18:33N 48°53' W 123°18'9 9.5
2014-Jul-28 17:34N 49°00' W 123°08'0 0.1
2014-Jul-28 16:33N 49°00' W 123°08'1110.6
2014-Jul-28 15:33N 48°53' W 123°19'2 1.9
2014-Jul-28 14:32N 48°51' W 123°20'3 3.5
2014-Jul-28 13:33N 48°50' W 123°25'2 2.1
2014-Jul-28 12:31N 48°51' W 123°27'0 0.0
2014-Jul-28 11:25N 48°51' W 123°27'0 0.0
2014-Jul-28 10:31N 48°51' W 123°27'0 0.0
2014-Jul-28 09:26N 48°51' W 123°27'0 0.0
2014-Jul-28 07:12N 48°51' W 123°27'6 8.6
2014-Jul-28 06:34N 48°52' W 123°18'1111.0
2014-Jul-28 05:33N 49°00' W 123°08'9 9.5
2014-Jul-28 04:33N 48°53' W 123°17'3 2.9
2014-Jul-28 03:33N 48°51' W 123°20'9 8.9
2014-Jul-28 02:33N 48°58' W 123°12'4 3.6
2014-Jul-28 01:33N 49°00' W 123°08'1110.7
2014-Jul-28 00:34N 48°53' W 123°19'5 3.8
2014-Jul-27 23:09N 48°51' W 123°27'4 6.5
2014-Jul-27 22:30N 48°52' W 123°20'1212.7
2014-Jul-27 21:33N 49°00' W 123°08'5 4.6
2014-Jul-27 20:33N 48°57' W 123°12'7 7.0
2014-Jul-27 19:34N 48°51' W 123°19'1 0.8
2014-Jul-27 18:26N 48°51' W 123°20'4 5.0
2014-Jul-27 17:34N 48°54' W 123°16'8 8.2
2014-Jul-27 16:34N 49°00' W 123°08'10 9.6
2014-Jul-27 15:33N 48°53' W 123°17'6 6.4
2014-Jul-27 14:33N 48°51' W 123°27'0 0.0
2014-Jul-27 11:10N 48°51' W 123°27'0 0.0
2014-Jul-27 08:23N 48°51' W 123°27'0 0.0
2014-Jul-27 07:22N 48°51' W 123°27'2 0.9
2014-Jul-27 05:33N 48°51' W 123°24'1414.0
2014-Jul-27 04:33N 49°00' W 123°08'0 0.3
2014-Jul-27 03:33N 49°00' W 123°08'0 0.0
2014-Jul-27 02:33N 49°00' W 123°08'0 0.0
2014-Jul-27 01:33N 49°00' W 123°08'1212.2
2014-Jul-27 00:33N 48°52' W 123°21'3 0.9
2014-Jul-26 21:15N 48°50' W 123°25'811.7
2014-Jul-26 20:33N 48°55' W 123°15'7 7.0
2014-Jul-26 19:33N 49°00' W 123°08'7 7.1
2014-Jul-26 18:33N 48°55' W 123°14'5 5.1
2014-Jul-26 17:30N 48°51' W 123°20'2 2.4
2014-Jul-26 16:34N 48°53' W 123°18'1010.2
2014-Jul-26 15:33N 49°00' W 123°08'3 2.8
2014-Jul-26 14:33N 48°58' W 123°10'1312.5
2014-Jul-26 13:33N 48°50' W 123°25'1 0.6
2014-Jul-26 11:05N 48°51' W 123°27'0 0.0
2014-Jul-26 10:30N 48°51' W 123°27'0 0.0
2014-Jul-26 09:04N 48°51' W 123°27'0 0.0
2014-Jul-26 06:13N 48°51' W 123°27'2 3.1
2014-Jul-26 05:34N 48°50' W 123°25'4 3.5
2014-Jul-26 04:33N 48°51' W 123°20'1211.8
2014-Jul-26 03:34N 48°60' W 123°08'2 1.9
2014-Jul-26 02:33N 48°58' W 123°10'10 9.4
2014-Jul-26 01:31N 48°51' W 123°20'2 2.0
2014-Jul-26 00:34N 48°53' W 123°19'1110.6
2014-Jul-25 23:34N 49°00' W 123°08'0 0.0
2014-Jul-25 22:34N 49°00' W 123°08'1313.2
2014-Jul-25 21:33N 48°51' W 123°23'2 2.0
2014-Jul-25 20:32N 48°50' W 123°25'4 3.2
2014-Jul-25 19:19N 48°51' W 123°20'2 2.5
2014-Jul-25 18:33N 48°53' W 123°19'1110.7
2014-Jul-25 17:33N 49°00' W 123°08'0 0.0
2014-Jul-25 16:33N 49°00' W 123°08'1110.7
2014-Jul-25 15:33N 48°53' W 123°19'2 1.9
2014-Jul-25 14:33N 48°51' W 123°20'3 3.4
2014-Jul-25 13:33N 48°49' W 123°25'2 2.2
2014-Jul-25 12:32N 48°51' W 123°27'0 0.0
2014-Jul-25 11:11N 48°51' W 123°27'0 0.0
2014-Jul-25 09:27N 48°51' W 123°27'0 0.0
2014-Jul-25 08:32N 48°51' W 123°27'0 0.0
2014-Jul-25 07:33N 48°51' W 123°27'1 0.6
2014-Jul-25 05:29N 48°50' W 123°25'3 3.7
2014-Jul-25 04:33N 48°51' W 123°20'2 2.0
2014-Jul-25 03:33N 48°53' W 123°19'1110.7
2014-Jul-25 02:33N 49°00' W 123°08'1 1.4
2014-Jul-25 01:34N 48°59' W 123°09'9 9.3
2014-Jul-25 00:33N 48°53' W 123°19'3 3.0
2014-Jul-24 23:33N 48°50' W 123°20'4 4.1
2014-Jul-24 22:28N 48°51' W 123°27'0 0.1
2014-Jul-24 21:31N 48°51' W 123°27'1 1.2
2014-Jul-24 20:32N 48°50' W 123°25'4 2.8
2014-Jul-24 19:15N 48°51' W 123°20'2 2.8
2014-Jul-24 18:33N 48°53' W 123°19'1110.7
2014-Jul-24 17:33N 49°00' W 123°08'0 0.0
2014-Jul-24 16:33N 49°00' W 123°08'1110.7
2014-Jul-24 15:33N 48°53' W 123°19'2 2.2
2014-Jul-24 14:33N 48°51' W 123°20'3 3.1
2014-Jul-24 13:33N 48°50' W 123°25'2 2.0
2014-Jul-24 12:33N 48°51' W 123°27'0 0.0
2014-Jul-24 11:27N 48°51' W 123°27'0 0.0
2014-Jul-24 10:33N 48°51' W 123°27'0 0.0
2014-Jul-24 09:24N 48°51' W 123°27'0 0.0
2014-Jul-24 08:25N 48°51' W 123°27'0 0.0
2014-Jul-24 07:33N 48°51' W 123°27'1 0.4
2014-Jul-24 05:29N 48°51' W 123°26'4 3.9
2014-Jul-24 04:33N 48°51' W 123°20'3 3.0
2014-Jul-24 03:33N 48°53' W 123°18'10 9.7
2014-Jul-24 02:33N 49°00' W 123°08'1 0.7
2014-Jul-24 01:33N 48°60' W 123°08'10 9.9
2014-Jul-24 00:34N 48°53' W 123°18'4 4.2
2014-Jul-23 23:33N 48°48' W 123°20'4 1.3
2014-Jul-23 20:21N 48°51' W 123°26'4 5.1
2014-Jul-23 19:33N 48°49' W 123°20'4 4.0
2014-Jul-23 18:33N 48°53' W 123°19'1110.5
2014-Jul-23 17:33N 49°00' W 123°08'0 0.2
2014-Jul-23 16:33N 49°00' W 123°08'1110.7
2014-Jul-23 15:33N 48°53' W 123°19'2 1.9
2014-Jul-23 14:31N 48°51' W 123°20'3 3.4
2014-Jul-23 13:33N 48°49' W 123°24'3 2.9
2014-Jul-23 12:33N 48°51' W 123°27'0 0.0
2014-Jul-23 11:16N 48°51' W 123°27'0 0.0
2014-Jul-23 08:31N 48°51' W 123°27'0 0.0
2014-Jul-23 07:26N 48°51' W 123°27'1 0.5
2014-Jul-23 05:28N 48°51' W 123°26'4 3.9
2014-Jul-23 04:32N 48°51' W 123°20'2 2.0
2014-Jul-23 03:34N 48°53' W 123°19'1110.7
2014-Jul-23 02:33N 49°00' W 123°08'0 0.4
2014-Jul-23 01:34N 49°00' W 123°08'1010.3
2014-Jul-23 00:33N 48°53' W 123°19'4 3.5
2014-Jul-22 23:32N 48°49' W 123°20'5 4.5
2014-Jul-22 22:29N 48°51' W 123°27'0 0.1
2014-Jul-22 21:06N 48°51' W 123°27'1 1.1
2014-Jul-22 20:24N 48°51' W 123°26'4 4.9
2014-Jul-22 19:34N 48°49' W 123°20'4 3.8
2014-Jul-22 18:34N 48°53' W 123°19'1010.0
2014-Jul-22 17:33N 48°60' W 123°09'1 0.6
2014-Jul-22 16:33N 49°00' W 123°08'1110.7
2014-Jul-22 15:33N 48°53' W 123°19'2 1.9
2014-Jul-22 14:32N 48°51' W 123°20'3 3.3
2014-Jul-22 13:33N 48°50' W 123°25'2 1.4
2014-Jul-22 12:09N 48°51' W 123°27'0 0.0
2014-Jul-22 06:17N 48°51' W 123°27'1 1.5
2014-Jul-22 05:33N 48°51' W 123°25'4 3.6
2014-Jul-22 04:32N 48°51' W 123°20'2 2.0
2014-Jul-22 03:33N 48°53' W 123°19'1110.6
2014-Jul-22 02:33N 49°00' W 123°08'5 4.6
2014-Jul-22 01:33N 48°57' W 123°12'7 6.8
2014-Jul-22 00:33N 48°52' W 123°19'5 1.3
2014-Jul-21 20:28N 48°51' W 123°27'1 8.0
2014-Jul-21 20:17N 48°50' W 123°25'3 4.7
2014-Jul-21 19:34N 48°49' W 123°20'4 3.6
2014-Jul-21 18:33N 48°53' W 123°19'1110.7
2014-Jul-21 17:33N 49°00' W 123°08'0 0.0
2014-Jul-21 16:33N 49°00' W 123°08'1110.7
2014-Jul-21 15:33N 48°53' W 123°19'2 2.0
2014-Jul-21 14:33N 48°51' W 123°20'3 3.4
2014-Jul-21 13:34N 48°50' W 123°25'2 0.4
2014-Jul-21 08:17N 48°51' W 123°27'0 0.0
2014-Jul-21 07:06N 48°51' W 123°27'510.1
2014-Jul-21 06:34N 48°52' W 123°19'1111.2
2014-Jul-21 05:33N 49°00' W 123°08'1010.1
2014-Jul-21 04:33N 48°53' W 123°18'2 2.4
2014-Jul-21 03:33N 48°51' W 123°20'7 7.2
2014-Jul-21 02:33N 48°57' W 123°14'5 5.4
2014-Jul-21 01:33N 49°00' W 123°08'1110.6
2014-Jul-21 00:33N 48°53' W 123°19'6 5.0
2014-Jul-20 23:27N 48°51' W 123°27'1 0.6
2014-Jul-20 22:26N 48°51' W 123°26'1214.0
2014-Jul-20 21:33N 48°58' W 123°11'3 3.1
2014-Jul-20 20:33N 49°00' W 123°08'1110.4
2014-Jul-20 19:32N 48°53' W 123°19'2 2.0
2014-Jul-20 18:33N 48°51' W 123°20'3 2.7
2014-Jul-20 17:33N 48°53' W 123°18'10 9.9
2014-Jul-20 16:33N 49°00' W 123°08'7 6.7
2014-Jul-20 15:34N 48°55' W 123°14'7 7.4
2014-Jul-20 14:33N 48°51' W 123°23'2 1.5
2014-Jul-20 13:04N 48°51' W 123°27'0 0.0
2014-Jul-20 12:33N 48°51' W 123°27'0 0.0
2014-Jul-20 11:32N 48°51' W 123°27'0 0.0
2014-Jul-20 10:20N 48°51' W 123°27'0 0.0
2014-Jul-20 09:33N 48°51' W 123°27'0 0.0
2014-Jul-20 06:15N 48°51' W 123°27'3 3.9
2014-Jul-20 05:31N 48°51' W 123°22'1313.4
2014-Jul-20 04:33N 49°00' W 123°08'0 0.3
2014-Jul-20 03:33N 49°00' W 123°08'0 0.0
2014-Jul-20 02:33N 49°00' W 123°08'0 0.0
2014-Jul-20 01:33N 49°00' W 123°08'1110.8
2014-Jul-20 00:33N 48°52' W 123°18'3 0.8
2014-Jul-19 20:33N 48°51' W 123°23'1313.6
2014-Jul-19 19:33N 49°00' W 123°08'6 5.5
2014-Jul-19 18:33N 48°56' W 123°13'7 6.8
2014-Jul-19 17:33N 48°51' W 123°20'2 1.9
2014-Jul-19 16:33N 48°53' W 123°19'1110.7
2014-Jul-19 15:33N 49°00' W 123°08'2 1.7
2014-Jul-19 14:33N 48°59' W 123°09'1312.9
2014-Jul-19 13:33N 48°51' W 123°25'1 0.7
2014-Jul-19 11:30N 48°51' W 123°27'0 0.0
2014-Jul-19 10:33N 48°51' W 123°27'0 0.0
2014-Jul-19 09:27N 48°51' W 123°27'0 0.0
2014-Jul-19 08:23N 48°51' W 123°27'  

Dump ship's entire track history